createdAt,value
2019-05-13T00:00:15.052Z,8.50
2019-05-13T00:02:43.919Z,8.60
2019-05-13T00:05:14.644Z,8.50
2019-05-13T00:07:43.853Z,8.50
2019-05-13T00:10:14.598Z,8.50
2019-05-13T00:12:44.633Z,8.60
2019-05-13T00:15:14.334Z,8.70
2019-05-13T00:17:44.613Z,8.80
2019-05-13T00:20:14.199Z,8.80
2019-05-13T00:22:44.821Z,8.80
2019-05-13T00:25:14.463Z,8.80
2019-05-13T00:27:44.397Z,8.80
2019-05-13T00:30:14.418Z,8.90
2019-05-13T00:32:44.616Z,9.00
2019-05-13T00:35:14.228Z,9.00
2019-05-13T00:37:44.409Z,9.00
2019-05-13T00:40:14.472Z,9.00
2019-05-13T00:42:44.288Z,9.00
2019-05-13T00:45:14.507Z,9.10
2019-05-13T00:47:43.874Z,8.90
2019-05-13T00:50:14.265Z,8.90
2019-05-13T00:52:44.938Z,8.90
2019-05-13T00:55:14.699Z,8.90
2019-05-13T00:57:43.850Z,8.90
2019-05-13T01:00:14.312Z,8.90
2019-05-13T01:02:44.695Z,8.90
2019-05-13T01:05:14.622Z,8.90
2019-05-13T01:07:44.448Z,8.80
2019-05-13T01:10:13.533Z,8.80
2019-05-13T01:12:44.036Z,8.80
2019-05-13T01:15:14.004Z,8.80
2019-05-13T01:17:44.745Z,8.80
2019-05-13T01:20:14.417Z,8.70
2019-05-13T01:22:44.134Z,8.60
2019-05-13T01:25:14.443Z,8.50
2019-05-13T01:27:44.337Z,8.50
2019-05-13T01:30:13.980Z,8.20
2019-05-13T01:32:44.891Z,8.00
2019-05-13T01:35:14.863Z,7.90
2019-05-13T01:37:46.136Z,7.80
2019-05-13T01:40:14.409Z,7.80
2019-05-13T01:42:44.395Z,7.90
2019-05-13T01:45:13.966Z,7.90
2019-05-13T01:47:44.098Z,7.90
2019-05-13T01:50:14.359Z,7.90
2019-05-13T01:52:44.521Z,7.90
2019-05-13T01:55:14.720Z,7.80
2019-05-13T01:57:44.285Z,7.80
2019-05-13T02:00:14.159Z,7.80
2019-05-13T02:02:44.597Z,7.80
2019-05-13T02:05:13.980Z,7.80
2019-05-13T02:07:54.458Z,7.80
2019-05-13T02:10:15.946Z,7.80
2019-05-13T02:12:44.916Z,7.70
2019-05-13T02:15:14.627Z,7.60
2019-05-13T02:17:44.640Z,7.10
2019-05-13T02:20:14.755Z,7.00
2019-05-13T02:22:44.515Z,6.80
2019-05-13T02:25:13.946Z,6.90
2019-05-13T02:27:43.912Z,7.20
2019-05-13T02:30:15.970Z,7.20
2019-05-13T02:32:43.329Z,7.30
2019-05-13T02:35:14.053Z,7.40
2019-05-13T02:37:43.358Z,7.50
2019-05-13T02:40:13.631Z,7.40
2019-05-13T02:42:43.628Z,7.40
2019-05-13T02:45:12.954Z,7.40
2019-05-13T02:47:44.290Z,7.40
2019-05-13T02:50:12.692Z,7.30
2019-05-13T02:52:44.245Z,7.30
2019-05-13T02:55:12.952Z,7.40
2019-05-13T02:57:43.658Z,7.30
2019-05-13T03:00:13.401Z,7.30
2019-05-13T03:02:43.923Z,7.30
2019-05-13T03:05:13.968Z,7.40
2019-05-13T03:07:43.113Z,7.50
2019-05-13T03:10:13.595Z,7.60
2019-05-13T03:12:42.881Z,7.60
2019-05-13T03:15:13.625Z,7.60
2019-05-13T03:17:53.528Z,7.60
2019-05-13T03:20:22.881Z,7.70
2019-05-13T03:22:52.790Z,7.60
2019-05-13T03:25:22.749Z,7.70
2019-05-13T03:27:54.150Z,7.80
2019-05-13T03:30:25.066Z,7.80
2019-05-13T03:33:00.348Z,8.00
2019-05-13T03:35:26.654Z,7.90
2019-05-13T03:37:53.201Z,8.00
2019-05-13T03:40:23.181Z,7.90
2019-05-13T03:42:53.590Z,7.70
2019-05-13T03:45:25.255Z,7.70
2019-05-13T03:47:56.478Z,7.60
2019-05-13T03:50:24.914Z,7.60
2019-05-13T03:52:53.395Z,7.60
2019-05-13T03:55:23.248Z,7.60
2019-05-13T03:57:53.181Z,7.50
2019-05-13T04:00:23.565Z,7.40
2019-05-13T04:02:52.849Z,7.50
2019-05-13T04:05:22.892Z,7.50
2019-05-13T04:07:52.730Z,7.40
2019-05-13T04:10:23.074Z,7.40
2019-05-13T04:12:52.815Z,7.30
2019-05-13T04:15:23.433Z,7.30
2019-05-13T04:17:53.412Z,7.20
2019-05-13T04:20:23.381Z,7.20
2019-05-13T04:22:53.307Z,7.30
2019-05-13T04:25:23.180Z,7.20
2019-05-13T04:27:53.499Z,7.20
2019-05-13T04:30:22.811Z,7.20
2019-05-13T04:32:53.383Z,7.30
2019-05-13T04:35:23.319Z,7.30
2019-05-13T04:37:52.968Z,7.30
2019-05-13T04:40:23.279Z,7.40
2019-05-13T04:42:53.419Z,7.40
2019-05-13T04:45:23.864Z,7.50
2019-05-13T04:47:53.097Z,7.60
2019-05-13T04:50:22.652Z,7.60
2019-05-13T04:52:52.787Z,7.50
2019-05-13T04:55:22.929Z,7.60
2019-05-13T04:57:53.317Z,7.60
2019-05-13T05:00:49.249Z,7.60
2019-05-13T05:03:32.762Z,7.60
2019-05-13T05:06:03.332Z,7.70
2019-05-13T05:09:03.282Z,7.80
2019-05-13T05:11:52.974Z,7.80
2019-05-13T05:14:32.509Z,7.90
2019-05-13T05:17:33.833Z,8.00
2019-05-13T05:20:14.169Z,8.00
2019-05-13T05:23:02.486Z,8.00
2019-05-13T05:25:41.620Z,8.00
2019-05-13T05:28:21.632Z,8.00
2019-05-13T05:31:02.291Z,8.00
2019-05-13T05:33:55.135Z,8.00
2019-05-13T05:36:46.020Z,8.10
2019-05-13T05:39:17.514Z,8.10
2019-05-13T05:41:47.622Z,8.20
2019-05-13T05:44:17.480Z,8.30
2019-05-13T05:46:48.527Z,8.50
2019-05-13T05:49:18.395Z,8.60
2019-05-13T05:51:51.276Z,8.70
2019-05-13T05:54:22.041Z,8.70
2019-05-13T05:56:53.571Z,8.80
2019-05-13T05:59:23.732Z,8.80
2019-05-13T06:01:54.972Z,8.90
2019-05-13T06:04:25.307Z,9.00
2019-05-13T06:06:55.831Z,9.10
2019-05-13T06:09:25.304Z,9.20
2019-05-13T06:11:54.752Z,9.40
2019-05-13T06:14:23.654Z,9.60
2019-05-13T06:16:52.645Z,9.70
2019-05-13T06:19:23.798Z,9.80
2019-05-13T06:21:52.405Z,9.70
2019-05-13T06:24:24.531Z,9.80
2019-05-13T06:26:52.044Z,10.00
2019-05-13T06:29:22.213Z,10.00
2019-05-13T06:31:51.980Z,10.00
2019-05-13T06:34:21.574Z,10.20
2019-05-13T06:36:52.311Z,10.30
2019-05-13T06:39:22.194Z,10.40
2019-05-13T06:41:51.835Z,10.50
2019-05-13T06:44:21.389Z,10.60
2019-05-13T06:46:51.634Z,10.70
2019-05-13T06:49:21.628Z,10.70
2019-05-13T06:51:52.726Z,10.90
2019-05-13T06:54:21.939Z,11.00
2019-05-13T06:56:51.745Z,11.00
2019-05-13T06:59:22.384Z,11.20
2019-05-13T07:01:51.390Z,11.30
2019-05-13T07:04:21.861Z,11.30
2019-05-13T07:06:56.136Z,11.50
2019-05-13T07:09:21.637Z,11.60
2019-05-13T07:11:51.820Z,11.50
2019-05-13T07:14:21.832Z,11.40
2019-05-13T07:16:52.453Z,11.50
2019-05-13T07:19:20.872Z,11.60
2019-05-13T07:21:51.933Z,11.80
2019-05-13T07:24:21.450Z,11.90
2019-05-13T07:26:52.157Z,12.00
2019-05-13T07:29:20.171Z,12.00
2019-05-13T07:31:49.015Z,12.00
2019-05-13T07:34:17.432Z,12.00
2019-05-13T07:36:45.875Z,12.00
2019-05-13T07:39:14.286Z,12.10
2019-05-13T07:41:43.293Z,12.20
2019-05-13T07:44:12.046Z,12.20
2019-05-13T07:46:42.699Z,12.30
2019-05-13T07:49:12.001Z,12.40
2019-05-13T07:51:41.999Z,12.50
2019-05-13T07:54:11.426Z,12.60
2019-05-13T07:56:42.372Z,12.60
2019-05-13T07:59:12.271Z,12.70
2019-05-13T08:01:41.740Z,12.80
2019-05-13T08:04:21.423Z,13.00
2019-05-13T08:06:41.665Z,12.90
2019-05-13T08:09:12.534Z,13.00
2019-05-13T08:12:00.213Z,13.10
2019-05-13T08:14:12.361Z,13.20
2019-05-13T08:16:42.711Z,13.20
2019-05-13T08:19:12.348Z,13.30
2019-05-13T08:21:41.844Z,13.30
2019-05-13T08:24:11.903Z,13.40
2019-05-13T08:26:44.959Z,13.60
2019-05-13T08:29:11.504Z,13.60
2019-05-13T08:31:41.250Z,13.70
2019-05-13T08:34:11.767Z,13.80
2019-05-13T08:36:42.611Z,14.00
2019-05-13T08:39:12.792Z,13.90
2019-05-13T08:41:42.315Z,13.90
2019-05-13T08:44:12.384Z,13.90
2019-05-13T08:46:41.546Z,13.90
2019-05-13T08:49:11.942Z,13.90
2019-05-13T08:51:42.199Z,13.90
2019-05-13T08:54:11.451Z,13.90
2019-05-13T08:56:41.599Z,14.00
2019-05-13T08:59:11.566Z,14.30
2019-05-13T09:01:42.440Z,14.50
2019-05-13T09:04:11.828Z,14.70
2019-05-13T09:06:41.941Z,14.30
2019-05-13T09:09:11.515Z,14.20
2019-05-13T09:11:42.132Z,14.10
2019-05-13T09:14:11.283Z,13.90
2019-05-13T09:16:41.895Z,13.90
2019-05-13T09:19:15.740Z,14.10
2019-05-13T09:21:42.312Z,14.20
2019-05-13T09:24:24.001Z,13.90
2019-05-13T09:26:42.142Z,13.70
2019-05-13T09:29:11.891Z,13.70
2019-05-13T09:31:41.560Z,13.40
2019-05-13T09:34:12.200Z,13.30
2019-05-13T09:36:41.748Z,13.50
2019-05-13T09:39:12.668Z,13.60
2019-05-13T09:41:43.888Z,13.60
2019-05-13T09:44:12.342Z,13.50
2019-05-13T09:46:42.499Z,13.50
2019-05-13T09:49:19.196Z,13.40
2019-05-13T09:51:41.762Z,13.20
2019-05-13T09:54:11.664Z,13.20
2019-05-13T09:56:41.359Z,13.20
2019-05-13T09:59:11.770Z,13.30
2019-05-13T10:01:42.450Z,13.20
2019-05-13T10:04:11.944Z,13.20
2019-05-13T10:06:42.100Z,13.10
2019-05-13T10:09:12.518Z,12.90
2019-05-13T10:11:40.919Z,12.90
2019-05-13T10:14:11.639Z,12.90
2019-05-13T10:16:42.469Z,12.90
2019-05-13T10:19:12.698Z,12.90
2019-05-13T10:21:42.048Z,12.80
2019-05-13T10:24:12.570Z,12.90
2019-05-13T10:26:43.039Z,13.10
2019-05-13T10:29:12.034Z,13.40
2019-05-13T10:31:42.064Z,13.70
2019-05-13T10:34:13.637Z,14.10
2019-05-13T10:36:42.105Z,14.00
2019-05-13T10:39:11.812Z,13.90
2019-05-13T10:41:42.342Z,13.60
2019-05-13T10:44:12.149Z,13.50
2019-05-13T10:46:42.567Z,13.30
2019-05-13T10:49:12.252Z,13.30
2019-05-13T10:51:41.863Z,13.30
2019-05-13T10:54:10.511Z,13.40
2019-05-13T10:56:38.929Z,13.30
2019-05-13T10:59:07.443Z,13.20
2019-05-13T11:01:35.881Z,13.20
2019-05-13T11:04:04.375Z,13.10
2019-05-13T11:06:32.897Z,13.20
2019-05-13T11:09:02.215Z,13.30
2019-05-13T11:11:33.065Z,13.30
2019-05-13T11:14:10.045Z,13.30
2019-05-13T11:16:31.194Z,13.40
2019-05-13T11:19:02.521Z,13.50
2019-05-13T11:21:32.139Z,13.50
2019-05-13T11:24:03.110Z,13.50
2019-05-13T11:26:35.980Z,13.30
2019-05-13T11:29:02.770Z,13.10
2019-05-13T11:31:32.838Z,12.80
2019-05-13T11:34:02.066Z,12.70
2019-05-13T11:36:33.276Z,12.50
2019-05-13T11:39:02.992Z,12.40
2019-05-13T11:41:32.588Z,12.30
2019-05-13T11:44:12.519Z,12.20
2019-05-13T11:46:33.259Z,12.20
2019-05-13T11:49:02.526Z,12.30
2019-05-13T11:51:31.979Z,12.60
2019-05-13T11:54:02.427Z,12.70
2019-05-13T11:56:33.782Z,12.80
2019-05-13T11:59:04.246Z,12.60
2019-05-13T12:01:33.479Z,12.60
2019-05-13T12:04:02.771Z,12.60
2019-05-13T12:06:33.949Z,12.60
2019-05-13T12:09:03.102Z,12.60
2019-05-13T12:11:33.383Z,12.80
2019-05-13T12:14:02.027Z,12.80
2019-05-13T12:16:30.453Z,12.90
2019-05-13T12:18:58.903Z,13.00
2019-05-13T12:21:27.313Z,13.20
2019-05-13T12:23:55.910Z,13.60
2019-05-13T12:26:24.546Z,13.90
2019-05-13T12:28:53.797Z,14.00
2019-05-13T12:31:22.563Z,13.80
2019-05-13T12:33:52.296Z,13.60
2019-05-13T12:38:53.488Z,13.40
2019-05-13T12:41:23.132Z,13.40
2019-05-13T12:43:54.052Z,13.20
2019-05-13T12:46:24.649Z,12.80
2019-05-13T12:48:52.066Z,12.70
2019-05-13T12:51:22.616Z,12.60
2019-05-13T12:53:52.781Z,12.60
2019-05-13T12:56:23.330Z,12.80
2019-05-13T12:58:52.088Z,12.80
2019-05-13T13:01:23.992Z,13.10
2019-05-13T13:03:51.022Z,13.50
2019-05-13T13:06:31.423Z,13.40
2019-05-13T13:08:50.869Z,13.50
2019-05-13T13:11:22.546Z,13.50
2019-05-13T13:13:58.740Z,13.50
2019-05-13T13:16:19.961Z,13.40
2019-05-13T13:18:48.499Z,13.20
2019-05-13T13:21:16.919Z,13.00
2019-05-13T13:23:45.344Z,13.00
2019-05-13T13:26:16.025Z,13.10
2019-05-13T13:28:43.927Z,13.40
2019-05-13T13:31:13.233Z,13.80
2019-05-13T13:33:44.343Z,14.00
2019-05-13T13:36:15.742Z,14.20
2019-05-13T13:38:43.848Z,14.40
2019-05-13T13:41:21.817Z,14.80
2019-05-13T13:43:42.434Z,15.50
2019-05-13T13:46:25.307Z,16.00
2019-05-13T13:48:43.830Z,16.10
2019-05-13T13:51:14.135Z,15.80
2019-05-13T13:53:44.421Z,15.40
2019-05-13T13:56:14.634Z,14.90
2019-05-13T13:58:43.966Z,14.50
2019-05-13T14:01:18.647Z,14.40
2019-05-13T14:03:45.927Z,14.80
2019-05-13T14:06:33.066Z,13.50
2019-05-13T14:07:14.039Z,15.50
2019-05-13T14:08:45.022Z,17.20
2019-05-13T14:11:13.463Z,19.00
2019-05-13T14:13:42.503Z,19.60
2019-05-13T14:16:24.823Z,18.40
2019-05-13T14:18:42.115Z,17.70
2019-05-13T14:21:10.755Z,17.00
2019-05-13T14:23:42.411Z,16.30
2019-05-13T14:26:09.899Z,16.00
2019-05-13T14:28:38.346Z,15.70
2019-05-13T14:31:06.778Z,16.70
2019-05-13T14:33:35.750Z,18.60
2019-05-13T14:36:04.299Z,20.20
2019-05-13T14:38:33.132Z,21.50
2019-05-13T14:41:03.008Z,22.30
2019-05-13T14:43:31.970Z,22.60
2019-05-13T14:46:02.356Z,21.50
2019-05-13T14:48:32.881Z,19.30
2019-05-13T14:51:02.039Z,17.80
2019-05-13T14:53:32.798Z,17.00
2019-05-13T14:56:03.040Z,16.50
2019-05-13T14:58:32.545Z,16.10
2019-05-13T15:01:14.782Z,15.70
2019-05-13T15:03:32.588Z,15.10
2019-05-13T15:06:01.695Z,14.80
2019-05-13T15:08:32.745Z,14.70
2019-05-13T15:11:01.896Z,14.60
2019-05-13T15:13:31.911Z,14.90
2019-05-13T15:16:00.938Z,16.00
2019-05-13T15:18:29.369Z,17.40
2019-05-13T15:21:01.487Z,18.30
2019-05-13T15:23:31.442Z,18.10
2019-05-13T15:25:59.187Z,18.30
2019-05-13T15:28:27.632Z,18.30
2019-05-13T15:30:56.047Z,18.10
2019-05-13T15:33:24.504Z,18.30
2019-05-13T15:35:53.204Z,18.00
2019-05-13T15:38:21.630Z,17.50
2019-05-13T15:40:52.216Z,17.00
2019-05-13T15:43:22.400Z,16.50
2019-05-13T15:46:08.831Z,16.10
2019-05-13T15:48:37.263Z,15.70
2019-05-13T15:51:05.695Z,15.30
2019-05-13T15:53:34.127Z,15.30
2019-05-13T15:56:02.922Z,15.30
2019-05-13T15:58:39.019Z,14.90
2019-05-13T16:01:02.981Z,14.60
2019-05-13T16:03:33.376Z,15.00
2019-05-13T16:06:01.925Z,15.40
2019-05-13T16:08:32.170Z,15.50
2019-05-13T16:11:02.219Z,15.90
2019-05-13T16:13:31.276Z,16.20
2019-05-13T16:16:01.549Z,16.10
2019-05-13T16:18:31.714Z,15.80
2019-05-13T16:21:01.759Z,15.40
2019-05-13T16:23:32.504Z,15.10
2019-05-13T16:26:01.640Z,14.90
2019-05-13T16:28:32.681Z,14.60
2019-05-13T16:31:02.319Z,14.60
2019-05-13T16:33:32.352Z,14.70
2019-05-13T16:36:02.659Z,14.60
2019-05-13T16:38:32.825Z,14.50
2019-05-13T16:41:01.163Z,14.50
2019-05-13T16:43:31.889Z,14.40
2019-05-13T16:45:59.949Z,14.40
2019-05-13T16:48:28.438Z,14.40
2019-05-13T16:50:56.879Z,14.70
2019-05-13T16:53:26.095Z,14.90
2019-05-13T16:55:54.728Z,14.80
2019-05-13T16:58:24.996Z,14.80
2019-05-13T17:00:55.888Z,14.80
2019-05-13T17:03:23.487Z,15.00
2019-05-13T17:05:51.912Z,15.00
2019-05-13T17:08:20.351Z,15.10
2019-05-13T17:10:48.783Z,14.90
2019-05-13T17:13:18.959Z,14.70
2019-05-13T17:15:47.453Z,14.20
2019-05-13T17:18:16.163Z,13.90
2019-05-13T17:20:44.588Z,13.90
2019-05-13T17:23:13.019Z,13.80
2019-05-13T17:25:42.315Z,13.90
2019-05-13T17:28:13.322Z,14.00
2019-05-13T17:30:41.110Z,14.10
2019-05-13T17:33:11.605Z,14.10
2019-05-13T17:35:41.740Z,14.10
2019-05-13T17:38:11.406Z,14.10
2019-05-13T17:40:41.984Z,14.10
2019-05-13T17:43:12.011Z,14.00
2019-05-13T17:45:49.470Z,14.10
2019-05-13T17:48:28.436Z,14.20
2019-05-13T17:50:48.056Z,14.00
2019-05-13T17:53:16.494Z,14.00
2019-05-13T17:55:44.913Z,14.00
2019-05-13T17:58:13.355Z,14.00
2019-05-13T18:00:41.779Z,14.00
2019-05-13T18:03:11.348Z,13.90
2019-05-13T18:05:41.938Z,13.80
2019-05-13T18:08:11.238Z,13.60
2019-05-13T18:10:41.859Z,13.50
2019-05-13T18:13:12.460Z,13.40
2019-05-13T18:15:40.198Z,13.40
2019-05-13T18:18:08.619Z,13.30
2019-05-13T18:20:37.050Z,13.30
2019-05-13T18:23:05.476Z,13.30
2019-05-13T18:25:33.914Z,13.20
2019-05-13T18:28:02.372Z,13.20
2019-05-13T18:30:31.769Z,13.20
2019-05-13T18:33:01.273Z,13.10
2019-05-13T18:35:31.509Z,12.90
2019-05-13T18:38:01.411Z,12.90
2019-05-13T18:40:31.587Z,12.80
2019-05-13T18:43:01.898Z,12.80
2019-05-13T18:45:30.503Z,12.70
2019-05-13T18:47:58.932Z,12.60
2019-05-13T18:50:27.364Z,12.50
2019-05-13T18:52:55.868Z,12.40
2019-05-13T18:55:24.299Z,12.40
2019-05-13T18:57:52.736Z,12.40
2019-05-13T19:00:21.753Z,12.30
2019-05-13T19:02:50.322Z,12.30
2019-05-13T19:05:21.061Z,12.20
2019-05-13T19:07:51.115Z,12.20
2019-05-13T19:10:19.123Z,12.10
2019-05-13T19:12:47.650Z,12.00
2019-05-13T19:15:16.247Z,11.80
2019-05-13T19:17:44.765Z,11.80
2019-05-13T19:20:13.498Z,11.50
2019-05-13T19:22:41.962Z,11.30
2019-05-13T19:25:11.964Z,11.10
2019-05-13T19:27:41.334Z,11.00
2019-05-13T19:30:12.138Z,10.70
2019-05-13T19:32:41.648Z,10.50
2019-05-13T19:35:11.768Z,10.50
2019-05-13T19:37:42.590Z,10.50
2019-05-13T19:40:13.007Z,10.50
2019-05-13T19:42:41.961Z,10.50
2019-05-13T19:45:11.058Z,10.20
2019-05-13T19:47:41.570Z,10.00
2019-05-13T19:50:09.812Z,9.70
2019-05-13T19:52:38.274Z,9.50
2019-05-13T19:55:07.248Z,9.30
2019-05-13T19:57:35.825Z,9.00
2019-05-13T20:00:10.266Z,8.70
2019-05-13T20:02:37.858Z,8.30
2019-05-13T20:05:07.060Z,8.00
2019-05-13T20:07:35.483Z,8.00
2019-05-13T20:10:07.607Z,8.10
2019-05-13T20:12:36.068Z,8.40
2019-05-13T20:15:06.313Z,8.70
2019-05-13T20:17:34.857Z,8.90
2019-05-13T20:20:04.131Z,9.10
2019-05-13T20:22:32.560Z,9.20
2019-05-13T20:25:02.502Z,9.30
2019-05-13T20:27:31.714Z,9.30
2019-05-13T20:30:01.601Z,9.40
2019-05-13T20:32:30.501Z,9.20
2019-05-13T20:34:58.931Z,9.10
2019-05-13T20:37:27.422Z,9.20
2019-05-13T20:39:55.856Z,9.10
2019-05-13T20:42:24.359Z,9.10
2019-05-13T20:44:52.813Z,9.10
2019-05-13T20:47:21.448Z,9.10
2019-05-13T20:49:59.173Z,9.20
2019-05-13T20:52:22.212Z,9.20
2019-05-13T20:54:51.129Z,9.10
2019-05-13T20:57:22.235Z,9.10
2019-05-13T20:59:51.661Z,9.10
2019-05-13T21:02:22.130Z,9.10
2019-05-13T21:04:50.430Z,9.10
2019-05-13T21:07:18.880Z,9.10
2019-05-13T21:09:47.372Z,9.00
2019-05-13T21:12:15.805Z,9.00
2019-05-13T21:14:44.245Z,8.90
2019-05-13T21:17:12.781Z,8.90
2019-05-13T21:19:42.887Z,8.90
2019-05-13T21:22:11.910Z,8.80
2019-05-13T21:24:41.222Z,8.50
2019-05-13T21:27:11.825Z,8.50
2019-05-13T21:29:41.393Z,8.50
2019-05-13T21:32:11.810Z,8.50
2019-05-13T21:34:40.401Z,8.60
2019-05-13T21:37:08.802Z,8.70
2019-05-13T21:39:37.242Z,8.80
2019-05-13T21:42:05.668Z,8.90
2019-05-13T21:44:34.108Z,8.80
2019-05-13T21:47:02.532Z,8.80
2019-05-13T21:49:31.952Z,8.60
2019-05-13T21:52:00.662Z,8.50
2019-05-13T21:54:33.304Z,8.60
2019-05-13T21:56:59.308Z,8.50
2019-05-13T21:59:27.726Z,8.60
2019-05-13T22:01:56.169Z,8.60
2019-05-13T22:04:24.582Z,8.60
2019-05-13T22:06:53.023Z,8.70
2019-05-13T22:09:22.109Z,8.80
2019-05-13T22:11:51.154Z,8.70
2019-05-13T22:14:19.649Z,8.80
2019-05-13T22:16:48.086Z,8.70
2019-05-13T22:19:16.511Z,8.70
2019-05-13T22:21:44.964Z,8.70
2019-05-13T22:24:13.387Z,8.60
2019-05-13T22:26:42.166Z,8.60
2019-05-13T22:29:10.719Z,8.60
2019-05-13T22:31:39.135Z,8.60
2019-05-13T22:34:07.569Z,8.60
2019-05-13T22:36:35.987Z,8.60
2019-05-13T22:39:06.182Z,8.60
2019-05-13T22:41:34.669Z,8.50
2019-05-13T22:44:03.597Z,8.40
2019-05-13T22:46:32.363Z,8.40
2019-05-13T22:49:01.233Z,8.40
2019-05-13T22:51:31.852Z,8.40
2019-05-13T22:53:59.887Z,8.30
2019-05-13T22:56:28.311Z,8.20
2019-05-13T22:58:56.735Z,8.10
2019-05-13T23:01:25.179Z,8.00
2019-05-13T23:03:53.639Z,7.90
2019-05-13T23:06:22.078Z,7.80
2019-05-13T23:08:50.559Z,7.80
2019-05-13T23:11:19.006Z,7.80
2019-05-13T23:13:47.432Z,7.80
2019-05-13T23:16:15.855Z,7.90
2019-05-13T23:18:44.299Z,7.80
2019-05-13T23:21:12.716Z,7.80
2019-05-13T23:23:41.222Z,7.70
2019-05-13T23:26:11.721Z,7.80
2019-05-13T23:28:41.554Z,7.80
2019-05-13T23:31:12.156Z,7.70
2019-05-13T23:33:41.720Z,7.70
2019-05-13T23:36:11.952Z,7.70
2019-05-13T23:38:41.412Z,7.70
2019-05-13T23:41:11.520Z,7.60
2019-05-13T23:43:40.151Z,7.60
2019-05-13T23:46:08.586Z,7.60
2019-05-13T23:48:37.010Z,7.50
2019-05-13T23:51:05.453Z,7.50
2019-05-13T23:53:33.939Z,7.40
2019-05-13T23:56:02.387Z,7.40
2019-05-13T23:58:32.168Z,7.30
